createdAt,value
2022-10-05T00:02:01.540Z,100684.44
2022-10-05T00:04:30.436Z,100690.59
2022-10-05T00:07:02.341Z,100686.28
2022-10-05T00:09:32.468Z,100693.28
2022-10-05T00:12:01.200Z,100682.94
2022-10-05T00:14:36.471Z,100682.06
2022-10-05T00:17:06.546Z,100682.94
2022-10-05T00:19:38.282Z,100680.34
2022-10-05T00:22:13.082Z,100674.38
2022-10-05T00:24:42.247Z,100672.59
2022-10-05T00:27:21.094Z,100676.88
2022-10-05T00:29:53.148Z,100677.78
2022-10-05T00:32:22.016Z,100669.16
2022-10-05T00:34:51.360Z,100671.66
2022-10-05T00:37:23.496Z,100669.03
2022-10-05T00:39:52.705Z,100665.56
2022-10-05T00:42:35.138Z,100665.63
2022-10-05T00:45:10.764Z,100663.97
2022-10-05T00:47:55.343Z,100654.50
2022-10-05T00:50:43.287Z,100663.22
2022-10-05T00:53:22.786Z,100658.94
2022-10-05T00:56:02.064Z,100667.63
2022-10-05T00:58:44.090Z,100653.75
2022-10-05T01:01:16.509Z,100644.22
2022-10-05T01:03:57.517Z,100649.41
2022-10-05T01:06:36.429Z,100648.53
2022-10-05T01:09:13.960Z,100633.69
2022-10-05T01:11:52.321Z,100638.00
2022-10-05T01:14:29.463Z,100637.13
2022-10-05T01:17:04.468Z,100646.56
2022-10-05T01:19:52.355Z,100652.66
2022-10-05T01:22:31.395Z,100644.03
2022-10-05T01:25:15.520Z,100652.78
2022-10-05T01:27:56.058Z,100654.50
2022-10-05T01:30:25.370Z,100659.75
2022-10-05T01:33:03.344Z,100652.84
2022-10-05T01:35:46.147Z,100651.13
2022-10-05T01:38:30.905Z,100666.78
2022-10-05T01:41:07.726Z,100667.75
2022-10-05T01:43:43.509Z,100667.75
2022-10-05T01:46:25.116Z,100661.72
2022-10-05T01:49:08.034Z,100673.81
2022-10-05T01:51:51.301Z,100665.00
2022-10-05T01:54:27.663Z,100654.53
2022-10-05T01:57:09.407Z,100660.59
2022-10-05T01:59:53.300Z,100661.38
2022-10-05T02:02:25.622Z,100663.03
2022-10-05T02:05:02.857Z,100662.94
2022-10-05T02:07:36.338Z,100668.91
2022-10-05T02:10:12.308Z,100667.06
2022-10-05T02:12:44.333Z,100660.84
2022-10-05T02:15:18.774Z,100660.78
2022-10-05T02:17:51.708Z,100664.16
2022-10-05T02:20:26.417Z,100651.94
2022-10-05T02:22:58.260Z,100660.59
2022-10-05T02:25:30.457Z,100648.34
2022-10-05T02:28:03.919Z,100641.31
2022-10-05T02:30:41.073Z,100646.41
2022-10-05T02:33:17.354Z,100648.88
2022-10-05T02:35:46.404Z,100654.84
2022-10-05T02:38:25.110Z,100662.53
2022-10-05T02:41:02.047Z,100663.38
2022-10-05T02:43:41.721Z,100672.00
2022-10-05T02:46:23.385Z,100677.16
2022-10-05T02:49:06.932Z,100676.19
2022-10-05T02:51:45.369Z,100670.94
2022-10-05T02:54:24.703Z,100659.59
2022-10-05T02:57:01.925Z,100643.94
2022-10-05T02:59:38.701Z,100641.34
2022-10-05T03:02:20.017Z,100635.31
2022-10-05T03:04:57.336Z,100626.66
2022-10-05T03:07:34.125Z,100616.34
2022-10-05T03:10:13.072Z,100623.38
2022-10-05T03:12:53.041Z,100623.56
2022-10-05T03:16:09.405Z,100624.50
2022-10-05T03:18:57.068Z,100625.53
2022-10-05T03:21:42.544Z,100636.94
2022-10-05T03:24:28.701Z,100637.09
2022-10-05T03:27:05.526Z,100638.03
2022-10-05T03:29:42.101Z,100622.41
2022-10-05T03:32:23.045Z,100608.53
2022-10-05T03:35:01.794Z,100618.97
2022-10-05T03:37:40.069Z,100631.06
2022-10-05T03:40:14.868Z,100640.66
2022-10-05T03:43:05.994Z,100635.47
2022-10-05T03:45:42.181Z,100621.66
2022-10-05T03:48:15.759Z,100633.72
2022-10-05T03:50:56.841Z,100634.59
2022-10-05T03:53:30.025Z,100631.19
2022-10-05T03:56:06.631Z,100633.84
2022-10-05T03:58:40.789Z,100644.22
2022-10-05T04:01:14.280Z,100641.59
2022-10-05T04:03:47.538Z,100629.38
2022-10-05T04:06:22.718Z,100635.38
2022-10-05T04:08:56.034Z,100641.34
2022-10-05T04:11:32.003Z,100621.34
2022-10-05T04:14:07.275Z,100628.22
2022-10-05T04:16:42.284Z,100635.09
2022-10-05T04:19:18.565Z,100638.47
2022-10-05T04:21:53.638Z,100626.22
2022-10-05T04:24:30.297Z,100620.94
2022-10-05T04:27:02.453Z,100622.66
2022-10-05T04:29:38.246Z,100630.41
2022-10-05T04:32:23.021Z,100630.41
2022-10-05T04:35:08.345Z,100624.31
2022-10-05T04:37:52.674Z,100626.91
2022-10-05T04:40:40.414Z,100625.19
2022-10-05T04:43:19.811Z,100628.59
2022-10-05T04:46:12.154Z,100615.53
2022-10-05T04:48:55.293Z,100626.84
2022-10-05T04:51:39.146Z,100626.84
2022-10-05T04:54:22.782Z,100627.66
2022-10-05T04:56:58.613Z,100625.88
2022-10-05T04:59:47.477Z,100624.94
2022-10-05T05:02:29.605Z,100631.78
2022-10-05T05:05:23.261Z,100635.19
2022-10-05T05:08:03.719Z,100622.09
2022-10-05T05:11:06.100Z,100634.97
2022-10-05T05:14:06.201Z,100640.91
2022-10-05T05:16:39.121Z,100639.03
2022-10-05T05:19:25.628Z,100636.31
2022-10-05T05:22:02.767Z,100635.34
2022-10-05T05:24:50.946Z,100649.16
2022-10-05T05:27:44.696Z,100645.66
2022-10-05T05:30:22.988Z,100643.78
2022-10-05T05:33:05.061Z,100653.22
2022-10-05T05:35:49.440Z,100660.94
2022-10-05T05:38:31.189Z,100668.63
2022-10-05T05:41:14.351Z,100665.94
2022-10-05T05:44:06.519Z,100676.25
2022-10-05T05:47:02.468Z,100666.63
2022-10-05T05:49:40.082Z,100671.72
2022-10-05T05:52:17.568Z,100676.78
2022-10-05T05:54:54.384Z,100667.03
2022-10-05T05:57:26.998Z,100671.13
2022-10-05T06:00:05.894Z,100688.34
2022-10-05T06:02:57.203Z,100687.19
2022-10-05T06:05:31.921Z,100684.28
2022-10-05T06:08:11.835Z,100677.06
2022-10-05T06:10:50.703Z,100662.69
2022-10-05T06:13:29.070Z,100654.66
2022-10-05T06:16:09.861Z,100660.25
2022-10-05T06:18:42.727Z,100659.09
2022-10-05T06:21:20.109Z,100667.53
2022-10-05T06:23:56.277Z,100657.81
2022-10-05T06:27:20.310Z,100651.47
2022-10-05T06:30:18.207Z,100660.84
2022-10-05T06:33:12.289Z,100647.50
2022-10-05T06:35:57.520Z,100659.34
2022-10-05T06:38:50.019Z,100653.78
2022-10-05T06:41:32.326Z,100670.75
2022-10-05T06:44:09.433Z,100659.88
2022-10-05T06:47:18.387Z,100668.19
2022-10-05T06:50:17.120Z,100665.16
2022-10-05T06:53:22.691Z,100677.03
2022-10-05T06:55:59.119Z,100676.78
2022-10-05T06:58:50.606Z,100687.84
2022-10-05T07:01:29.015Z,100673.56
2022-10-05T07:04:11.031Z,100668.13
2022-10-05T07:06:45.158Z,100681.69
2022-10-05T07:09:28.966Z,100676.91
2022-10-05T07:12:11.008Z,100687.81
2022-10-05T07:14:59.976Z,100678.63
2022-10-05T07:17:45.733Z,100671.06
2022-10-05T07:20:20.270Z,100683.03
2022-10-05T07:23:16.059Z,100674.94
2022-10-05T07:25:51.613Z,100686.91
2022-10-05T07:28:35.382Z,100678.75
2022-10-05T07:31:11.622Z,100681.19
2022-10-05T07:33:47.687Z,100678.22
2022-10-05T07:36:40.897Z,100673.47
2022-10-05T07:39:18.702Z,100685.25
2022-10-05T07:41:54.991Z,100688.66
2022-10-05T07:44:32.816Z,100681.59
2022-10-05T07:47:09.968Z,100682.50
2022-10-05T07:49:49.786Z,100680.75
2022-10-05T07:52:25.067Z,100672.94
2022-10-05T07:55:05.050Z,100672.81
2022-10-05T07:57:41.260Z,100670.97
2022-10-05T08:00:19.267Z,100663.94
2022-10-05T08:02:53.342Z,100666.31
2022-10-05T08:05:28.072Z,100658.19
2022-10-05T08:08:05.860Z,100659.72
2022-10-05T08:10:43.131Z,100651.44
2022-10-05T08:13:18.103Z,100649.41
2022-10-05T08:15:52.297Z,100649.78
2022-10-05T08:18:45.576Z,100653.59
2022-10-05T08:21:18.530Z,100660.91
2022-10-05T08:23:52.088Z,100655.00
2022-10-05T08:26:30.215Z,100650.69
2022-10-05T08:29:13.947Z,100651.59
2022-10-05T08:31:50.156Z,100660.03
2022-10-05T08:34:27.538Z,100664.91
2022-10-05T08:37:05.332Z,100668.34
2022-10-05T08:39:41.218Z,100667.09
2022-10-05T08:42:44.720Z,100658.91
2022-10-05T08:45:41.764Z,100648.97
2022-10-05T08:48:49.231Z,100661.72
2022-10-05T08:51:47.917Z,100655.31
2022-10-05T08:54:38.991Z,100652.34
2022-10-05T08:57:32.594Z,100658.16
2022-10-05T09:00:11.050Z,100646.34
2022-10-05T09:03:12.021Z,100646.97
2022-10-05T09:06:14.672Z,100649.31
2022-10-05T09:09:06.502Z,100648.97
2022-10-05T09:11:38.025Z,100643.53
2022-10-05T09:14:35.030Z,100642.00
2022-10-05T09:17:39.231Z,100641.50
2022-10-05T09:20:32.558Z,100644.75
2022-10-05T09:23:15.237Z,100642.25
2022-10-05T09:25:59.138Z,100634.53
2022-10-05T09:28:35.944Z,100645.38
2022-10-05T09:31:35.084Z,100635.69
2022-10-05T09:34:45.533Z,100629.63
2022-10-05T09:37:35.855Z,100627.84
2022-10-05T09:40:47.771Z,100624.25
2022-10-05T09:43:43.061Z,100632.72
2022-10-05T09:46:45.102Z,100615.63
2022-10-05T09:49:54.459Z,100609.13
2022-10-05T09:52:56.938Z,100603.78
2022-10-05T09:55:40.682Z,100606.34
2022-10-05T09:58:59.362Z,100606.72
2022-10-05T10:02:01.757Z,100607.81
2022-10-05T10:05:02.024Z,100602.28
2022-10-05T10:08:04.812Z,100615.84
2022-10-05T10:11:05.989Z,100620.03
2022-10-05T10:13:57.116Z,100618.41
2022-10-05T10:16:54.250Z,100618.75
2022-10-05T10:20:03.464Z,100615.09
2022-10-05T10:22:51.417Z,100604.00
2022-10-05T10:25:55.400Z,100615.56
2022-10-05T10:28:42.177Z,100619.84
2022-10-05T10:31:27.834Z,100614.94
2022-10-05T10:34:26.574Z,100614.25
2022-10-05T10:37:12.980Z,100612.03
2022-10-05T10:40:05.317Z,100611.38
2022-10-05T10:42:43.445Z,100599.84
2022-10-05T10:45:21.422Z,100594.97
2022-10-05T10:48:00.480Z,100595.47
2022-10-05T10:51:05.609Z,100590.38
2022-10-05T10:54:14.523Z,100602.13
2022-10-05T10:57:04.514Z,100606.28
2022-10-05T11:00:07.665Z,100605.94
2022-10-05T11:03:14.833Z,100605.66
2022-10-05T11:06:03.587Z,100609.22
2022-10-05T11:09:00.708Z,100626.63
2022-10-05T11:12:01.787Z,100613.47
2022-10-05T11:15:07.460Z,100617.16
2022-10-05T11:17:54.319Z,100609.66
2022-10-05T11:21:09.692Z,100607.66
2022-10-05T11:24:11.939Z,100589.09
2022-10-05T11:27:09.861Z,100593.34
2022-10-05T11:30:12.649Z,100594.13
2022-10-05T11:33:21.543Z,100585.59
2022-10-05T11:36:12.435Z,100574.34
2022-10-05T11:39:12.902Z,100559.69
2022-10-05T11:42:09.316Z,100563.59
2022-10-05T11:45:06.383Z,100565.53
2022-10-05T11:47:40.739Z,100561.97
2022-10-05T11:50:21.832Z,100556.19
2022-10-05T11:52:57.235Z,100549.16
2022-10-05T11:55:34.563Z,100537.88
2022-10-05T11:58:09.685Z,100534.84
2022-10-05T12:00:45.284Z,100548.53
2022-10-05T12:03:34.493Z,100547.69
2022-10-05T12:06:18.730Z,100540.03
2022-10-05T12:08:59.407Z,100539.78
2022-10-05T12:11:41.059Z,100546.22
2022-10-05T12:14:21.649Z,100533.44
2022-10-05T12:17:00.340Z,100545.25
2022-10-05T12:19:36.693Z,100534.00
2022-10-05T12:22:16.200Z,100545.78
2022-10-05T12:25:02.733Z,100549.41
2022-10-05T12:27:39.313Z,100537.03
2022-10-05T12:30:16.129Z,100541.59
2022-10-05T12:33:01.007Z,100550.22
2022-10-05T12:35:47.776Z,100546.66
2022-10-05T12:38:27.254Z,100545.91
2022-10-05T12:41:05.965Z,100543.81
2022-10-05T12:43:47.450Z,100539.59
2022-10-05T12:46:36.370Z,100539.56
2022-10-05T12:49:28.717Z,100539.66
2022-10-05T12:51:59.755Z,100531.94
2022-10-05T12:54:43.741Z,100526.03
2022-10-05T12:57:22.498Z,100531.09
2022-10-05T12:59:59.090Z,100527.34
2022-10-05T13:02:39.481Z,100532.38
2022-10-05T13:05:25.188Z,100528.22
2022-10-05T13:08:14.285Z,100528.50
2022-10-05T13:10:49.410Z,100519.53
2022-10-05T13:13:41.617Z,100522.16
2022-10-05T13:16:18.847Z,100526.31
2022-10-05T13:19:17.673Z,100527.09
2022-10-05T13:22:14.436Z,100535.94
2022-10-05T13:24:53.726Z,100537.63
2022-10-05T13:27:29.204Z,100527.44
2022-10-05T13:30:03.027Z,100525.41
2022-10-05T13:32:37.118Z,100525.13
2022-10-05T13:35:27.213Z,100522.63
2022-10-05T13:38:04.538Z,100516.47
2022-10-05T13:40:40.998Z,100517.13
2022-10-05T13:43:24.551Z,100508.00
2022-10-05T13:45:57.687Z,100515.00
2022-10-05T13:48:57.486Z,100508.09
2022-10-05T13:51:31.298Z,100508.84
2022-10-05T13:54:09.410Z,100505.06
2022-10-05T13:56:45.273Z,100498.88
2022-10-05T13:59:25.040Z,100498.66
2022-10-05T14:02:00.122Z,100486.34
2022-10-05T14:04:31.392Z,100490.94
2022-10-05T14:07:30.423Z,100498.34
2022-10-05T14:10:00.491Z,100493.03
2022-10-05T14:12:30.189Z,100500.03
2022-10-05T14:15:14.261Z,100492.69
2022-10-05T14:17:47.365Z,100492.06
2022-10-05T14:20:23.684Z,100482.25
2022-10-05T14:22:58.061Z,100479.06
2022-10-05T14:25:27.553Z,100477.13
2022-10-05T14:28:06.220Z,100468.75
2022-10-05T14:30:37.096Z,100473.69
2022-10-05T14:33:17.439Z,100481.09
2022-10-05T14:35:49.970Z,100475.34
2022-10-05T14:38:22.851Z,100471.94
2022-10-05T14:41:18.353Z,100473.06
2022-10-05T14:43:56.239Z,100472.66
2022-10-05T14:46:29.716Z,100472.94
2022-10-05T14:49:19.495Z,100475.03
2022-10-05T14:51:48.922Z,100476.09
2022-10-05T14:54:37.235Z,100472.91
2022-10-05T14:57:13.536Z,100476.31
2022-10-05T15:00:11.154Z,100470.66
2022-10-05T15:03:10.683Z,100469.19
2022-10-05T15:05:50.432Z,100473.25
2022-10-05T15:08:36.269Z,100474.47
2022-10-05T15:11:09.376Z,100479.44
2022-10-05T15:13:42.826Z,100480.47
2022-10-05T15:16:20.595Z,100477.22
2022-10-05T15:18:59.297Z,100472.19
2022-10-05T15:21:48.089Z,100471.66
2022-10-05T15:24:21.130Z,100471.06
2022-10-05T15:26:52.494Z,100472.38
2022-10-05T15:29:38.381Z,100472.78
2022-10-05T15:32:22.759Z,100473.34
2022-10-05T15:35:10.773Z,100470.28
2022-10-05T15:37:43.968Z,100478.06
2022-10-05T15:40:22.431Z,100484.47
2022-10-05T15:42:56.006Z,100470.09
2022-10-05T15:45:32.883Z,100480.09
2022-10-05T15:48:06.687Z,100471.75
2022-10-05T15:50:47.004Z,100467.09
2022-10-05T15:53:23.047Z,100473.78
2022-10-05T15:55:54.841Z,100475.97
2022-10-05T15:58:55.956Z,100464.25
2022-10-05T16:01:40.595Z,100461.38
2022-10-05T16:04:16.032Z,100460.16
2022-10-05T16:07:21.958Z,100458.84
2022-10-05T16:09:58.145Z,100457.53
2022-10-05T16:12:46.045Z,100454.31
2022-10-05T16:15:26.651Z,100461.56
2022-10-05T16:18:34.157Z,100452.28
2022-10-05T16:21:14.275Z,100445.63
2022-10-05T16:23:56.754Z,100440.78
2022-10-05T16:26:38.731Z,100443.66
2022-10-05T16:29:16.359Z,100437.03
2022-10-05T16:31:55.522Z,100444.94
2022-10-05T16:34:37.748Z,100435.50
2022-10-05T16:37:15.055Z,100446.91
2022-10-05T16:39:55.313Z,100455.66
2022-10-05T16:42:42.353Z,100454.56
2022-10-05T16:45:25.393Z,100454.56
2022-10-05T16:48:04.482Z,100463.59
2022-10-05T16:50:41.199Z,100462.03
2022-10-05T16:53:18.020Z,100463.06
2022-10-05T16:55:53.281Z,100456.25
2022-10-05T17:03:35.713Z,100479.31
2022-10-05T17:06:17.295Z,100472.78
2022-10-05T17:09:03.123Z,100469.66
2022-10-05T17:11:43.879Z,100475.94
2022-10-05T17:14:33.082Z,100468.13
2022-10-05T17:17:22.348Z,100454.59
2022-10-05T17:20:07.554Z,100446.97
2022-10-05T17:22:46.658Z,100441.88
2022-10-05T17:25:19.498Z,100434.53
2022-10-05T17:27:54.776Z,100443.38
2022-10-05T17:30:54.109Z,100439.22
2022-10-05T17:33:26.394Z,100431.84
2022-10-05T17:36:13.574Z,100432.06
2022-10-05T17:38:53.230Z,100436.81
2022-10-05T17:41:27.056Z,100434.56
2022-10-05T17:44:24.473Z,100437.22
2022-10-05T17:46:56.183Z,100445.13
2022-10-05T17:50:16.446Z,100426.59
2022-10-05T17:53:24.076Z,100430.25
2022-10-05T17:56:04.630Z,100431.31
2022-10-05T17:59:01.559Z,100437.28
2022-10-05T18:01:32.922Z,100435.50
2022-10-05T18:04:26.170Z,100433.81
2022-10-05T18:07:03.331Z,100433.97
2022-10-05T18:09:38.087Z,100431.66
2022-10-05T18:12:28.977Z,100429.16
2022-10-05T18:15:02.653Z,100418.81
2022-10-05T18:17:45.329Z,100425.91
2022-10-05T18:20:21.857Z,100430.25
2022-10-05T18:22:53.100Z,100421.19
2022-10-05T18:25:31.115Z,100428.09
2022-10-05T18:28:19.235Z,100430.09
2022-10-05T18:31:03.353Z,100423.28
2022-10-05T18:34:00.136Z,100417.31
2022-10-05T18:36:44.679Z,100423.91
2022-10-05T18:39:27.743Z,100411.22
2022-10-05T18:42:11.695Z,100410.47
2022-10-05T18:44:44.018Z,100402.81
2022-10-05T18:47:19.525Z,100403.84
2022-10-05T18:50:01.911Z,100401.41
2022-10-05T18:52:45.140Z,100402.47
2022-10-05T18:55:22.040Z,100405.25
2022-10-05T18:58:17.993Z,100402.69
2022-10-05T19:01:10.748Z,100410.97
2022-10-05T19:03:51.314Z,100408.50
2022-10-05T19:06:26.334Z,100414.63
2022-10-05T19:09:04.162Z,100408.50
2022-10-05T19:11:41.039Z,100410.34
2022-10-05T19:14:21.517Z,100408.63
2022-10-05T19:17:07.302Z,100403.66
2022-10-05T19:19:45.173Z,100407.38
2022-10-05T19:22:26.331Z,100404.97
2022-10-05T19:25:17.409Z,100402.56
2022-10-05T19:27:56.889Z,100402.94
2022-10-05T19:30:32.119Z,100410.13
2022-10-05T19:33:19.238Z,100407.69
2022-10-05T19:36:02.192Z,100404.72
2022-10-05T19:38:37.344Z,100408.41
2022-10-05T19:41:15.776Z,100412.13
2022-10-05T19:44:10.247Z,100401.88
2022-10-05T19:46:55.265Z,100409.91
2022-10-05T19:49:39.169Z,100397.91
2022-10-05T19:52:21.241Z,100403.44
2022-10-05T19:55:04.886Z,100406.44
2022-10-05T19:57:34.837Z,100402.28
2022-10-05T20:00:04.291Z,100413.97
2022-10-05T20:02:39.959Z,100408.13
2022-10-05T20:05:14.872Z,100413.38
2022-10-05T20:07:43.687Z,100408.38
2022-10-05T20:10:29.845Z,100410.50
2022-10-05T20:13:00.357Z,100416.91
2022-10-05T20:16:02.766Z,100414.56
2022-10-05T20:19:08.118Z,100413.25
2022-10-05T20:21:45.072Z,100416.06
2022-10-05T20:24:16.168Z,100418.91
2022-10-05T20:27:04.608Z,100414.63
2022-10-05T20:29:36.776Z,100414.75
2022-10-05T20:32:08.895Z,100416.72
2022-10-05T20:34:42.391Z,100414.28
2022-10-05T20:37:12.329Z,100419.69
2022-10-05T20:39:42.060Z,100419.78
2022-10-05T20:42:12.096Z,100419.91
2022-10-05T20:44:41.544Z,100410.34
2022-10-05T20:47:10.483Z,100417.50
2022-10-05T20:49:41.678Z,100422.81
2022-10-05T20:52:13.417Z,100418.59
2022-10-05T20:54:42.293Z,100417.88
2022-10-05T20:57:11.509Z,100417.22
2022-10-05T20:59:40.465Z,100412.94
2022-10-05T21:02:10.125Z,100409.59
2022-10-05T21:04:41.668Z,100416.59
2022-10-05T21:07:11.137Z,100422.91
2022-10-05T21:09:41.080Z,100416.81
2022-10-05T21:12:10.316Z,100421.25
2022-10-05T21:14:40.784Z,100423.88
2022-10-05T21:17:09.725Z,100419.56
2022-10-05T21:19:40.675Z,100421.31
2022-10-05T21:22:12.422Z,100429.78
2022-10-05T21:24:42.313Z,100426.19
2022-10-05T21:27:11.172Z,100433.13
2022-10-05T21:29:41.304Z,100433.03
2022-10-05T21:32:11.958Z,100433.88
2022-10-05T21:34:41.358Z,100431.31
2022-10-05T21:37:11.615Z,100432.31
2022-10-05T21:39:40.727Z,100436.69
2022-10-05T21:42:09.520Z,100440.22
2022-10-05T21:44:38.324Z,100438.28
2022-10-05T21:47:08.230Z,100433.03
2022-10-05T21:49:37.695Z,100434.72
2022-10-05T21:52:06.910Z,100441.56
2022-10-05T21:54:37.508Z,100450.41
2022-10-05T21:57:06.228Z,100454.81
2022-10-05T21:59:36.346Z,100450.63
2022-10-05T22:02:05.333Z,100442.91
2022-10-05T22:04:34.032Z,100451.75
2022-10-05T22:07:02.744Z,100448.47
2022-10-05T22:09:31.355Z,100442.56
2022-10-05T22:12:02.572Z,100447.09
2022-10-05T22:14:32.314Z,100444.63
2022-10-05T22:17:01.065Z,100450.00
2022-10-05T22:19:29.655Z,100453.66
2022-10-05T22:21:58.488Z,100452.06
2022-10-05T22:24:26.986Z,100446.09
2022-10-05T22:26:55.767Z,100444.50
2022-10-05T22:29:25.869Z,100452.41
2022-10-05T22:31:56.979Z,100451.59
2022-10-05T22:34:25.655Z,100452.66
2022-10-05T22:36:54.608Z,100457.91
2022-10-05T22:39:23.404Z,100453.50
2022-10-05T22:41:52.974Z,100456.19
2022-10-05T22:44:22.458Z,100454.59
2022-10-05T22:46:52.741Z,100458.69
2022-10-05T22:49:21.879Z,100452.53
2022-10-05T22:51:51.264Z,100461.31
2022-10-05T22:54:20.001Z,100460.44
2022-10-05T22:56:48.690Z,100469.19
2022-10-05T22:59:18.003Z,100472.84
2022-10-05T23:01:46.915Z,100479.09
2022-10-05T23:04:16.922Z,100472.09
2022-10-05T23:06:45.562Z,100472.06
2022-10-05T23:09:14.309Z,100469.34
2022-10-05T23:11:43.162Z,100471.91
2022-10-05T23:14:11.931Z,100478.13
2022-10-05T23:16:40.711Z,100474.78
2022-10-05T23:19:09.676Z,100482.75
2022-10-05T23:21:40.317Z,100477.63
2022-10-05T23:24:09.143Z,100477.75
2022-10-05T23:26:37.989Z,100475.16
2022-10-05T23:29:09.082Z,100478.81
2022-10-05T23:31:37.913Z,100474.53
2022-10-05T23:34:06.649Z,100478.09
2022-10-05T23:36:36.136Z,100486.00
2022-10-05T23:39:06.531Z,100478.38
2022-10-05T23:41:38.371Z,100480.31
2022-10-05T23:44:07.053Z,100486.59
2022-10-05T23:46:35.794Z,100487.50
2022-10-05T23:49:04.591Z,100483.97
2022-10-05T23:51:34.901Z,100483.28
2022-10-05T23:54:06.043Z,100486.84
2022-10-05T23:56:35.435Z,100482.50
2022-10-05T23:59:04.183Z,100480.75
